createdAt,value
2018-08-09T00:00:39.332Z,55.99
2018-08-09T00:03:07.082Z,56.26
2018-08-09T00:05:34.714Z,56.62
2018-08-09T00:08:02.371Z,56.51
2018-08-09T00:10:30.068Z,56.84
2018-08-09T00:12:57.742Z,56.99
2018-08-09T00:15:25.403Z,56.80
2018-08-09T00:17:53.116Z,57.70
2018-08-09T00:20:20.783Z,57.84
2018-08-09T00:22:48.399Z,57.79
2018-08-09T00:25:16.239Z,58.00
2018-08-09T00:27:43.906Z,58.17
2018-08-09T00:30:11.492Z,57.73
2018-08-09T00:32:40.206Z,58.34
2018-08-09T00:35:07.819Z,58.25
2018-08-09T00:37:35.434Z,58.49
2018-08-09T00:40:03.138Z,58.60
2018-08-09T00:42:30.804Z,58.55
2018-08-09T00:44:58.516Z,58.65
2018-08-09T00:47:26.239Z,58.50
2018-08-09T00:49:53.859Z,58.20
2018-08-09T00:52:21.555Z,58.14
2018-08-09T00:54:49.208Z,58.10
2018-08-09T00:57:16.838Z,58.10
2018-08-09T00:59:44.484Z,58.65
2018-08-09T01:02:12.151Z,58.08
2018-08-09T01:04:39.842Z,57.68
2018-08-09T01:07:07.445Z,57.73
2018-08-09T01:09:35.172Z,58.33
2018-08-09T01:12:02.885Z,58.30
2018-08-09T01:14:30.492Z,58.35
2018-08-09T01:16:58.205Z,58.48
2018-08-09T01:19:25.841Z,57.88
2018-08-09T01:21:53.454Z,58.25
2018-08-09T01:24:21.127Z,58.24
2018-08-09T01:26:48.744Z,57.75
2018-08-09T01:29:16.406Z,57.86
2018-08-09T01:31:44.091Z,57.76
2018-08-09T01:34:11.746Z,58.29
2018-08-09T01:36:39.436Z,58.56
2018-08-09T01:39:08.343Z,58.33
2018-08-09T01:41:36.004Z,58.60
2018-08-09T01:44:04.960Z,58.42
2018-08-09T01:46:32.748Z,58.61
2018-08-09T01:49:00.768Z,58.73
2018-08-09T01:51:29.134Z,58.63
2018-08-09T01:53:56.874Z,58.93
2018-08-09T01:56:24.571Z,58.88
2018-08-09T01:58:52.786Z,58.29
2018-08-09T02:01:20.808Z,58.79
2018-08-09T02:03:48.462Z,58.53
2018-08-09T02:06:17.020Z,58.84
2018-08-09T02:08:45.174Z,58.61
2018-08-09T02:11:13.019Z,58.68
2018-08-09T02:13:41.112Z,58.91
2018-08-09T02:16:09.835Z,59.07
2018-08-09T02:18:37.903Z,58.85
2018-08-09T02:21:05.666Z,58.73
2018-08-09T02:23:33.611Z,58.88
2018-08-09T02:26:01.265Z,58.69
2018-08-09T02:28:28.921Z,59.22
2018-08-09T02:30:56.603Z,59.15
2018-08-09T02:33:24.268Z,59.08
2018-08-09T02:35:51.885Z,59.38
2018-08-09T02:38:19.653Z,59.32
2018-08-09T02:40:47.337Z,59.39
2018-08-09T02:43:14.989Z,59.11
2018-08-09T02:45:42.643Z,58.96
2018-08-09T02:48:10.240Z,58.97
2018-08-09T02:50:37.905Z,58.69
2018-08-09T02:53:05.580Z,59.48
2018-08-09T02:55:33.213Z,59.41
2018-08-09T02:58:00.856Z,59.49
2018-08-09T03:00:28.614Z,59.41
2018-08-09T03:02:56.248Z,59.40
2018-08-09T03:05:23.928Z,59.38
2018-08-09T03:07:51.580Z,59.31
2018-08-09T03:10:19.362Z,59.95
2018-08-09T03:12:46.955Z,60.17
2018-08-09T03:15:14.626Z,59.88
2018-08-09T03:17:42.270Z,59.41
2018-08-09T03:20:09.940Z,59.43
2018-08-09T03:22:37.636Z,59.48
2018-08-09T03:25:05.381Z,59.79
2018-08-09T03:27:33.034Z,59.47
2018-08-09T03:30:00.733Z,59.89
2018-08-09T03:32:28.508Z,60.00
2018-08-09T03:34:56.140Z,59.70
2018-08-09T03:37:24.826Z,59.48
2018-08-09T03:39:52.475Z,59.46
2018-08-09T03:42:20.100Z,59.82
2018-08-09T03:44:47.752Z,59.63
2018-08-09T03:47:17.402Z,59.79
2018-08-09T03:49:45.112Z,59.61
2018-08-09T03:52:12.842Z,59.51
2018-08-09T03:54:40.470Z,59.11
2018-08-09T03:57:08.215Z,58.95
2018-08-09T03:59:35.954Z,58.98
2018-08-09T04:02:03.623Z,59.49
2018-08-09T04:04:31.253Z,58.99
2018-08-09T04:06:58.942Z,59.17
2018-08-09T04:09:26.601Z,58.83
2018-08-09T04:11:56.264Z,58.90
2018-08-09T04:14:23.986Z,58.88
2018-08-09T04:16:51.650Z,58.85
2018-08-09T04:19:20.351Z,58.71
2018-08-09T04:21:48.024Z,58.74
2018-08-09T04:24:15.663Z,59.09
2018-08-09T04:26:43.285Z,58.77
2018-08-09T04:29:10.936Z,58.37
2018-08-09T04:31:38.563Z,58.14
2018-08-09T04:34:06.303Z,58.28
2018-08-09T04:36:33.947Z,58.49
2018-08-09T04:39:01.590Z,58.38
2018-08-09T04:41:29.196Z,58.47
2018-08-09T04:43:56.845Z,58.04
2018-08-09T04:46:24.464Z,57.81
2018-08-09T04:48:52.073Z,57.80
2018-08-09T04:51:19.756Z,58.00
2018-08-09T04:53:47.374Z,57.78
2018-08-09T04:56:15.127Z,57.66
2018-08-09T04:58:42.832Z,57.59
2018-08-09T05:01:10.581Z,57.64
2018-08-09T05:03:38.208Z,57.04
2018-08-09T05:06:07.811Z,56.60
2018-08-09T05:08:35.555Z,56.30
2018-08-09T05:11:03.444Z,55.99
2018-08-09T05:13:31.242Z,56.99
2018-08-09T05:15:58.962Z,55.40
2018-08-09T05:18:26.579Z,55.82
2018-08-09T05:20:54.305Z,54.97
2018-08-09T05:23:22.016Z,54.93
2018-08-09T05:25:50.181Z,54.82
2018-08-09T05:28:17.908Z,54.76
2018-08-09T05:30:45.595Z,54.89
2018-08-09T05:33:13.336Z,54.99
2018-08-09T05:35:44.321Z,54.56
2018-08-09T05:38:12.008Z,54.52
2018-08-09T05:40:39.707Z,54.75
2018-08-09T05:43:07.414Z,54.81
2018-08-09T05:45:37.124Z,54.35
2018-08-09T05:48:05.060Z,54.35
2018-08-09T05:50:32.773Z,54.40
2018-08-09T05:53:07.739Z,54.50
2018-08-09T05:55:35.442Z,53.36
2018-08-09T05:58:03.229Z,52.42
2018-08-09T06:00:32.429Z,52.42
2018-08-09T06:03:00.528Z,52.35
2018-08-09T06:05:28.525Z,52.81
2018-08-09T06:07:56.280Z,53.12
2018-08-09T06:10:24.096Z,51.73
2018-08-09T06:12:51.824Z,51.52
2018-08-09T06:15:19.644Z,50.44
2018-08-09T06:17:47.560Z,50.25
2018-08-09T06:20:15.490Z,50.73
2018-08-09T06:22:43.552Z,49.42
2018-08-09T06:25:11.502Z,48.55
2018-08-09T06:27:39.395Z,49.68
2018-08-09T06:30:08.807Z,49.14
2018-08-09T06:32:37.078Z,47.99
2018-08-09T06:35:07.440Z,48.18
2018-08-09T06:37:35.681Z,48.56
2018-08-09T06:40:04.611Z,47.32
2018-08-09T06:42:36.481Z,46.23
2018-08-09T06:45:04.682Z,45.91
2018-08-09T06:47:32.884Z,45.42
2018-08-09T06:50:00.764Z,44.15
2018-08-09T06:52:28.782Z,43.51
2018-08-09T06:54:56.735Z,43.57
2018-08-09T06:57:24.767Z,43.32
2018-08-09T06:59:54.500Z,42.68
2018-08-09T07:02:22.502Z,42.73
2018-08-09T07:04:50.296Z,42.44
2018-08-09T07:07:18.287Z,41.66
2018-08-09T07:09:46.103Z,40.50
2018-08-09T07:12:14.149Z,40.81
2018-08-09T07:14:42.013Z,40.66
2018-08-09T07:17:10.904Z,41.59
2018-08-09T07:19:50.603Z,41.39
2018-08-09T07:22:18.856Z,41.39
2018-08-09T07:24:46.779Z,40.76
2018-08-09T07:27:14.643Z,40.26
2018-08-09T07:29:42.981Z,39.92
2018-08-09T07:32:14.231Z,40.58
2018-08-09T07:34:41.828Z,39.97
2018-08-09T07:37:09.629Z,39.40
2018-08-09T07:39:38.424Z,39.11
2018-08-09T07:42:06.066Z,39.63
2018-08-09T07:44:33.807Z,38.99
2018-08-09T07:47:01.504Z,38.70
2018-08-09T07:49:29.553Z,39.23
2018-08-09T07:51:57.259Z,38.45
2018-08-09T07:54:25.054Z,37.70
2018-08-09T07:56:53.141Z,37.65
2018-08-09T07:59:24.287Z,38.16
2018-08-09T08:01:51.978Z,36.80
2018-08-09T08:04:19.679Z,36.75
2018-08-09T08:06:47.752Z,35.44
2018-08-09T08:09:15.556Z,34.29
2018-08-09T08:11:43.268Z,34.60
2018-08-09T08:14:11.040Z,34.29
2018-08-09T08:16:39.021Z,33.86
2018-08-09T08:19:07.011Z,34.02
2018-08-09T08:21:34.863Z,32.47
2018-08-09T08:24:02.724Z,32.54
2018-08-09T08:26:37.356Z,32.16
2018-08-09T08:29:05.336Z,30.52
2018-08-09T08:31:33.248Z,29.58
2018-08-09T08:34:01.118Z,29.56
2018-08-09T08:36:28.925Z,28.43
2018-08-09T08:38:56.797Z,26.84
2018-08-09T08:41:24.560Z,26.81
2018-08-09T08:43:52.302Z,26.08
2018-08-09T08:46:20.040Z,25.36
2018-08-09T08:48:47.740Z,23.89
2018-08-09T08:51:15.556Z,24.24
2018-08-09T08:53:43.371Z,23.02
2018-08-09T08:56:11.167Z,23.04
2018-08-09T08:58:39.482Z,23.53
2018-08-09T09:01:07.508Z,24.01
2018-08-09T09:03:35.289Z,23.23
2018-08-09T09:06:02.956Z,22.75
2018-08-09T09:08:30.627Z,22.76
2018-08-09T09:10:58.427Z,23.20
2018-08-09T09:13:26.178Z,22.96
2018-08-09T09:15:53.899Z,22.24
2018-08-09T09:18:21.697Z,22.37
2018-08-09T09:20:49.364Z,22.77
2018-08-09T09:23:17.036Z,22.37
2018-08-09T09:25:44.729Z,22.45
2018-08-09T09:28:12.419Z,22.46
2018-08-09T09:30:40.072Z,23.81
2018-08-09T09:33:07.828Z,24.88
2018-08-09T09:35:35.511Z,26.76
2018-08-09T09:38:03.185Z,26.31
2018-08-09T09:40:30.839Z,26.09
2018-08-09T09:42:58.623Z,26.68
2018-08-09T09:45:26.332Z,27.96
2018-08-09T09:47:53.966Z,27.23
2018-08-09T09:50:21.662Z,25.59
2018-08-09T09:52:49.483Z,26.90
2018-08-09T09:55:17.283Z,27.16
2018-08-09T09:57:45.189Z,27.23
2018-08-09T10:00:18.780Z,25.79
2018-08-09T10:02:46.737Z,27.35
2018-08-09T10:05:14.834Z,26.27
2018-08-09T10:07:42.546Z,25.03
2018-08-09T10:10:11.136Z,24.04
2018-08-09T10:12:39.007Z,23.70
2018-08-09T10:15:06.748Z,23.33
2018-08-09T10:17:34.567Z,23.42
2018-08-09T10:20:02.320Z,22.38
2018-08-09T10:22:30.065Z,23.70
2018-08-09T10:24:57.880Z,23.55
2018-08-09T10:27:26.624Z,24.47
2018-08-09T10:29:54.298Z,22.79
2018-08-09T10:32:22.013Z,23.50
2018-08-09T10:34:50.668Z,23.92
2018-08-09T10:37:18.896Z,23.77
2018-08-09T10:42:41.908Z,24.33
2018-08-09T10:45:09.994Z,24.77
2018-08-09T10:47:37.819Z,24.76
2018-08-09T10:50:05.871Z,24.92
2018-08-09T10:52:34.384Z,24.34
2018-08-09T10:55:02.424Z,22.15
2018-08-09T10:57:30.396Z,21.80
2018-08-09T10:59:58.268Z,20.68
2018-08-09T11:02:42.608Z,19.39
2018-08-09T11:05:10.514Z,17.89
2018-08-09T11:07:38.506Z,17.18
2018-08-09T11:10:07.600Z,17.31
2018-08-09T11:12:35.361Z,18.45
2018-08-09T11:15:03.247Z,18.56
2018-08-09T11:17:30.904Z,17.56
2018-08-09T11:19:58.709Z,17.76
2018-08-09T11:22:26.368Z,18.19
2018-08-09T11:24:54.081Z,19.04
2018-08-09T11:27:21.830Z,18.81
2018-08-09T11:29:49.522Z,17.71
2018-08-09T11:32:17.135Z,18.62
2018-08-09T11:34:44.841Z,17.86
2018-08-09T11:37:12.517Z,18.16
2018-08-09T11:39:40.178Z,18.88
2018-08-09T11:42:07.962Z,19.94
2018-08-09T11:44:35.668Z,18.95
2018-08-09T11:47:03.630Z,17.67
2018-08-09T11:49:31.422Z,16.89
2018-08-09T11:51:59.263Z,16.37
2018-08-09T11:54:26.939Z,15.78
2018-08-09T11:56:54.684Z,15.40
2018-08-09T11:59:22.378Z,15.23
2018-08-09T12:01:50.101Z,16.76
2018-08-09T12:04:17.806Z,16.45
2018-08-09T12:06:45.494Z,16.86
2018-08-09T12:09:13.152Z,16.84
2018-08-09T12:11:40.922Z,15.84
2018-08-09T12:14:08.704Z,14.73
2018-08-09T12:16:36.614Z,15.72
2018-08-09T12:19:04.742Z,14.58
2018-08-09T12:21:32.391Z,14.70
2018-08-09T12:24:00.176Z,13.76
2018-08-09T12:26:27.991Z,14.65
2018-08-09T12:28:55.735Z,14.31
2018-08-09T12:31:23.583Z,14.05
2018-08-09T12:33:51.301Z,13.09
2018-08-09T12:36:19.078Z,13.76
2018-08-09T12:38:46.814Z,13.14
2018-08-09T12:41:14.625Z,12.74
2018-08-09T12:43:42.315Z,12.41
2018-08-09T12:46:10.029Z,12.34
2018-08-09T12:48:37.756Z,12.58
2018-08-09T12:51:05.483Z,13.17
2018-08-09T12:53:34.166Z,13.18
2018-08-09T12:56:03.077Z,13.00
2018-08-09T12:58:30.824Z,12.93
2018-08-09T13:00:58.872Z,12.80
2018-08-09T13:03:26.717Z,13.31
2018-08-09T13:05:54.663Z,12.89
2018-08-09T13:08:22.479Z,12.83
2018-08-09T13:10:58.641Z,13.24
2018-08-09T13:13:26.518Z,13.34
2018-08-09T13:15:54.363Z,12.64
2018-08-09T13:18:22.116Z,12.88
2018-08-09T13:20:50.056Z,13.38
2018-08-09T13:23:17.826Z,14.01
2018-08-09T13:25:45.752Z,14.45
2018-08-09T13:28:13.442Z,15.42
2018-08-09T13:30:41.668Z,15.68
2018-08-09T13:33:27.815Z,14.66
2018-08-09T13:35:55.638Z,14.55
2018-08-09T13:38:23.638Z,14.06
2018-08-09T13:40:51.504Z,14.30
2018-08-09T13:43:19.769Z,14.94
2018-08-09T13:45:47.750Z,15.49
2018-08-09T13:48:15.609Z,16.52
2018-08-09T13:50:43.448Z,16.79
2018-08-09T13:53:11.124Z,15.73
2018-08-09T13:55:39.026Z,14.90
2018-08-09T13:58:07.155Z,15.25
2018-08-09T14:00:34.989Z,14.99
2018-08-09T14:03:03.076Z,14.77
2018-08-09T14:05:31.105Z,14.32
2018-08-09T14:07:59.020Z,13.92
2018-08-09T14:10:27.287Z,13.89
2018-08-09T14:12:55.147Z,13.49
2018-08-09T14:15:23.021Z,13.90
2018-08-09T14:17:51.275Z,14.22
2018-08-09T14:20:25.690Z,13.75
2018-08-09T14:22:53.694Z,13.64
2018-08-09T14:25:21.335Z,13.37
2018-08-09T14:27:49.201Z,14.32
2018-08-09T14:30:17.591Z,13.48
2018-08-09T14:32:46.564Z,13.40
2018-08-09T14:35:15.580Z,14.73
2018-08-09T14:37:44.246Z,15.04
2018-08-09T14:40:12.752Z,14.78
2018-08-09T14:42:40.655Z,14.31
2018-08-09T14:45:11.389Z,14.00
2018-08-09T14:47:39.545Z,14.34
2018-08-09T14:50:18.532Z,13.99
2018-08-09T14:55:25.933Z,14.68
2018-08-09T14:57:53.789Z,15.00
2018-08-09T15:00:27.562Z,15.28
2018-08-09T15:02:55.695Z,16.50
2018-08-09T15:05:23.432Z,16.64
2018-08-09T15:07:51.144Z,16.38
2018-08-09T15:10:18.865Z,16.00
2018-08-09T15:12:46.664Z,16.00
2018-08-09T15:15:20.779Z,15.88
2018-08-09T15:17:48.619Z,16.11
2018-08-09T15:20:16.375Z,16.44
2018-08-09T15:22:44.114Z,18.25
2018-08-09T15:25:12.158Z,18.66
2018-08-09T15:27:40.021Z,18.75
2018-08-09T15:30:13.388Z,18.44
2018-08-09T15:32:41.186Z,19.10
2018-08-09T15:35:08.949Z,19.18
2018-08-09T15:37:36.909Z,18.70
2018-08-09T15:40:05.453Z,19.49
2018-08-09T15:42:33.291Z,19.32
2018-08-09T15:45:01.244Z,20.76
2018-08-09T15:47:33.535Z,20.99
2018-08-09T15:50:01.471Z,21.33
2018-08-09T15:52:29.460Z,21.53
2018-08-09T15:54:57.371Z,21.44
2018-08-09T15:57:25.148Z,21.91
2018-08-09T15:59:52.842Z,22.08
2018-08-09T16:02:20.614Z,22.23
2018-08-09T16:04:48.359Z,23.11
2018-08-09T16:07:16.079Z,22.50
2018-08-09T16:09:43.805Z,22.93
2018-08-09T16:12:11.649Z,22.89
2018-08-09T16:14:39.352Z,22.93
2018-08-09T16:17:07.244Z,23.11
2018-08-09T16:19:35.015Z,23.89
2018-08-09T16:22:02.827Z,23.81
2018-08-09T16:24:48.332Z,24.05
2018-08-09T16:27:16.163Z,24.31
2018-08-09T16:29:43.923Z,23.67
2018-08-09T16:32:11.801Z,24.28
2018-08-09T16:34:39.491Z,23.67
2018-08-09T16:37:07.265Z,24.36
2018-08-09T16:39:35.057Z,24.17
2018-08-09T16:42:02.869Z,23.29
2018-08-09T16:44:30.599Z,23.57
2018-08-09T16:46:59.716Z,24.57
2018-08-09T16:49:27.447Z,23.54
2018-08-09T16:51:55.200Z,24.40
2018-08-09T16:54:22.972Z,24.07
2018-08-09T16:56:50.681Z,24.10
2018-08-09T16:59:18.471Z,24.38
2018-08-09T17:01:46.232Z,24.20
2018-08-09T17:04:14.012Z,24.69
2018-08-09T17:06:53.245Z,24.15
2018-08-09T17:09:20.993Z,24.67
2018-08-09T17:11:48.824Z,24.85
2018-08-09T17:14:16.690Z,24.71
2018-08-09T17:16:44.488Z,24.97
2018-08-09T17:19:12.246Z,24.83
2018-08-09T17:21:40.113Z,25.43
2018-08-09T17:24:09.107Z,25.62
2018-08-09T17:26:37.008Z,25.40
2018-08-09T17:29:05.500Z,24.77
2018-08-09T17:31:33.265Z,25.62
2018-08-09T17:34:01.060Z,25.22
2018-08-09T17:36:28.831Z,24.89
2018-08-09T17:38:56.532Z,24.88
2018-08-09T17:41:24.165Z,25.20
2018-08-09T17:43:51.988Z,24.90
2018-08-09T17:46:19.742Z,25.30
2018-08-09T17:48:47.504Z,25.19
2018-08-09T17:51:15.310Z,25.39
2018-08-09T17:53:43.031Z,25.26
2018-08-09T17:56:10.770Z,25.06
2018-08-09T17:58:38.480Z,25.28
2018-08-09T18:01:06.435Z,25.25
2018-08-09T18:03:34.224Z,25.48
2018-08-09T18:06:02.173Z,25.29
2018-08-09T18:08:29.934Z,25.84
2018-08-09T18:10:58.035Z,25.61
2018-08-09T18:13:31.102Z,25.86
2018-08-09T18:15:58.838Z,26.21
2018-08-09T18:18:26.572Z,26.05
2018-08-09T18:20:54.402Z,26.15
2018-08-09T18:23:22.098Z,26.42
2018-08-09T18:25:49.828Z,26.43
2018-08-09T18:28:17.512Z,26.32
2018-08-09T18:30:45.226Z,27.16
2018-08-09T18:33:12.892Z,27.23
2018-08-09T18:35:40.614Z,27.13
2018-08-09T18:38:08.455Z,27.43
2018-08-09T18:40:36.097Z,27.44
2018-08-09T18:43:04.013Z,26.94
2018-08-09T18:45:31.803Z,27.37
2018-08-09T18:47:59.515Z,27.53
2018-08-09T18:50:28.468Z,27.18
2018-08-09T18:53:10.486Z,27.50
2018-08-09T18:55:38.247Z,27.47
2018-08-09T18:58:06.016Z,28.30
2018-08-09T19:00:33.757Z,27.91
2018-08-09T19:03:01.487Z,29.77
2018-08-09T19:05:29.250Z,30.39
2018-08-09T19:07:57.155Z,31.06
2018-08-09T19:10:27.780Z,31.47
2018-08-09T19:12:56.492Z,32.26
2018-08-09T19:15:30.500Z,32.57
2018-08-09T19:18:02.458Z,32.67
2018-08-09T19:20:36.445Z,33.71
2018-08-09T19:23:05.271Z,33.29
2018-08-09T19:25:33.094Z,33.57
2018-08-09T19:28:00.928Z,33.93
2018-08-09T19:30:29.721Z,34.21
2018-08-09T19:32:57.562Z,34.55
2018-08-09T19:35:25.360Z,34.87
2018-08-09T19:37:53.116Z,35.83
2018-08-09T19:40:22.311Z,35.44
2018-08-09T19:42:50.137Z,36.21
2018-08-09T19:45:18.511Z,35.72
2018-08-09T19:47:46.359Z,36.21
2018-08-09T19:50:15.971Z,36.50
2018-08-09T19:52:43.760Z,36.55
2018-08-09T19:55:13.003Z,37.04
2018-08-09T19:57:42.055Z,36.76
2018-08-09T20:00:11.864Z,37.36
2018-08-09T20:02:39.631Z,37.46
2018-08-09T20:05:08.514Z,37.25
2018-08-09T20:07:36.160Z,37.58
2018-08-09T20:10:04.244Z,37.67
2018-08-09T20:12:32.070Z,37.56
2018-08-09T20:14:59.756Z,38.09
2018-08-09T20:17:27.640Z,37.76
2018-08-09T20:19:56.050Z,37.92
2018-08-09T20:22:23.804Z,38.40
2018-08-09T20:24:51.548Z,38.71
2018-08-09T20:27:19.383Z,38.40
2018-08-09T20:29:47.126Z,38.70
2018-08-09T20:32:20.737Z,38.72
2018-08-09T20:34:48.604Z,38.89
2018-08-09T20:37:16.280Z,38.54
2018-08-09T20:39:44.083Z,38.73
2018-08-09T20:42:11.870Z,38.07
2018-08-09T20:45:06.321Z,38.31
2018-08-09T20:47:34.280Z,39.12
2018-08-09T20:50:04.474Z,38.33
2018-08-09T20:52:32.284Z,38.64
2018-08-09T20:55:08.710Z,38.72
2018-08-09T20:57:36.973Z,38.32
2018-08-09T21:00:11.941Z,39.55
2018-08-09T21:02:40.795Z,39.64
2018-08-09T21:05:21.827Z,39.71
2018-08-09T21:07:50.298Z,40.03
2018-08-09T21:10:21.711Z,39.87
2018-08-09T21:12:51.329Z,39.60
2018-08-09T21:15:21.679Z,39.75
2018-08-09T21:17:50.075Z,38.84
2018-08-09T21:20:17.837Z,38.44
2018-08-09T21:22:53.043Z,38.98
2018-08-09T21:25:23.329Z,38.57
2018-08-09T21:27:54.868Z,38.06
2018-08-09T21:30:25.612Z,37.91
2018-08-09T21:32:56.200Z,36.94
2018-08-09T21:35:26.419Z,37.02
2018-08-09T21:37:58.428Z,37.08
2018-08-09T21:40:28.368Z,37.26
2018-08-09T21:42:57.242Z,37.18
2018-08-09T21:45:26.063Z,36.94
2018-08-09T21:47:56.439Z,36.57
2018-08-09T21:50:25.788Z,36.50
2018-08-09T21:52:58.284Z,36.88
2018-08-09T21:55:33.181Z,36.50
2018-08-09T21:58:01.773Z,36.90
2018-08-09T22:00:49.585Z,36.18
2018-08-09T22:06:15.871Z,36.33
2018-08-09T22:08:49.719Z,36.53
2018-08-09T22:11:27.216Z,37.03
2018-08-09T22:14:01.642Z,36.55
2018-08-09T22:16:36.404Z,36.96
2018-08-09T22:19:10.531Z,37.08
2018-08-09T22:21:45.625Z,37.63
2018-08-09T22:24:17.122Z,37.26
2018-08-09T22:26:47.795Z,37.60
2018-08-09T22:29:17.538Z,37.55
2018-08-09T22:31:47.599Z,37.31
2018-08-09T22:34:16.646Z,38.03
2018-08-09T22:36:50.718Z,38.03
2018-08-09T22:39:20.293Z,38.16
2018-08-09T22:41:52.094Z,37.99
2018-08-09T22:44:21.967Z,38.87
2018-08-09T22:46:51.132Z,38.88
2018-08-09T22:49:20.158Z,39.25
2018-08-09T22:51:49.940Z,38.85
2018-08-09T22:54:22.891Z,38.88
2018-08-09T22:56:52.382Z,39.46
2018-08-09T22:59:22.036Z,39.25
2018-08-09T23:01:50.721Z,39.44
2018-08-09T23:04:19.417Z,39.41
2018-08-09T23:06:48.315Z,39.96
2018-08-09T23:09:17.275Z,39.56
2018-08-09T23:11:45.060Z,39.44
2018-08-09T23:14:12.873Z,39.23
2018-08-09T23:16:40.765Z,39.57
2018-08-09T23:19:08.626Z,39.80
2018-08-09T23:21:39.652Z,39.75
2018-08-09T23:24:07.390Z,40.06
2018-08-09T23:26:35.152Z,39.87
2018-08-09T23:29:02.960Z,39.71
2018-08-09T23:31:30.770Z,40.29
2018-08-09T23:34:02.351Z,40.31
2018-08-09T23:36:30.118Z,40.02
2018-08-09T23:38:57.932Z,40.11
2018-08-09T23:41:25.768Z,40.35
2018-08-09T23:43:53.558Z,40.28
2018-08-09T23:46:21.282Z,40.36
2018-08-09T23:48:49.063Z,40.16
2018-08-09T23:51:16.830Z,41.05
2018-08-09T23:53:44.484Z,40.66
2018-08-09T23:56:12.289Z,40.99
2018-08-09T23:58:40.073Z,40.75
